createdAt,value
2019-01-25T00:01:55.080Z,60.20
2019-01-25T00:04:31.798Z,53.30
2019-01-25T00:07:05.531Z,52.40
2019-01-25T00:09:39.224Z,52.30
2019-01-25T00:12:12.822Z,46.33
2019-01-25T00:14:46.523Z,48.17
2019-01-25T00:17:20.146Z,47.87
2019-01-25T00:20:13.419Z,46.17
2019-01-25T00:22:47.183Z,55.47
2019-01-25T00:25:20.913Z,52.90
2019-01-25T00:28:18.827Z,48.63
2019-01-25T00:30:52.568Z,48.77
2019-01-25T00:33:26.386Z,56.27
2019-01-25T00:36:06.139Z,53.00
2019-01-25T00:38:40.138Z,46.10
2019-01-25T00:41:13.726Z,53.17
2019-01-25T00:43:47.413Z,51.27
2019-01-25T00:46:21.029Z,53.27
2019-01-25T00:48:54.867Z,55.10
2019-01-25T00:51:28.522Z,50.73
2019-01-25T00:54:09.499Z,44.93
2019-01-25T00:56:43.554Z,55.13
2019-01-25T00:59:20.292Z,49.17
2019-01-25T01:01:53.956Z,46.83
2019-01-25T01:04:27.619Z,46.57
2019-01-25T01:07:04.937Z,45.17
2019-01-25T01:09:38.718Z,39.87
2019-01-25T01:12:12.452Z,36.43
2019-01-25T01:14:46.070Z,45.50
2019-01-25T01:17:19.671Z,33.63
2019-01-25T01:20:17.084Z,48.57
2019-01-25T01:22:51.229Z,42.97
2019-01-25T01:25:24.923Z,41.10
2019-01-25T01:28:07.017Z,49.17
2019-01-25T01:30:42.729Z,46.67
2019-01-25T01:33:16.401Z,37.53
2019-01-25T01:35:50.158Z,48.50
2019-01-25T01:38:30.467Z,42.73
2019-01-25T01:41:04.371Z,41.07
2019-01-25T01:43:37.996Z,40.63
2019-01-25T01:46:11.659Z,47.53
2019-01-25T01:48:48.446Z,46.73
2019-01-25T01:51:22.111Z,42.83
2019-01-25T01:53:55.815Z,44.87
2019-01-25T01:56:44.700Z,46.10
2019-01-25T01:59:22.586Z,44.33
2019-01-25T02:01:56.278Z,45.87
2019-01-25T02:04:34.424Z,40.60
2019-01-25T02:07:11.218Z,48.10
2019-01-25T02:09:44.922Z,50.37
2019-01-25T02:12:18.626Z,49.27
2019-01-25T02:14:55.558Z,46.00
2019-01-25T02:17:32.628Z,48.00
2019-01-25T02:20:10.230Z,46.10
2019-01-25T02:22:43.922Z,49.93
2019-01-25T02:25:21.212Z,50.43
2019-01-25T02:27:54.976Z,53.57
2019-01-25T02:30:33.329Z,43.97
2019-01-25T02:33:07.122Z,44.23
2019-01-25T02:35:40.755Z,48.30
2019-01-25T02:38:23.634Z,44.00
2019-01-25T02:40:57.273Z,53.83
2019-01-25T02:43:30.901Z,49.97
2019-01-25T02:46:11.587Z,44.17
2019-01-25T02:48:45.227Z,48.83
2019-01-25T02:51:18.855Z,49.33
2019-01-25T02:54:00.704Z,48.83
2019-01-25T02:56:34.324Z,47.20
2019-01-25T02:59:08.101Z,44.63
2019-01-25T03:01:44.838Z,45.97
2019-01-25T03:04:18.544Z,46.53
2019-01-25T03:06:52.270Z,49.60
2019-01-25T03:09:25.931Z,43.73
2019-01-25T03:11:59.917Z,47.27
2019-01-25T03:14:33.641Z,45.77
2019-01-25T03:17:10.471Z,44.90
2019-01-25T03:19:44.141Z,44.33
2019-01-25T03:22:17.914Z,45.53
2019-01-25T03:25:05.130Z,47.20
2019-01-25T03:27:38.734Z,51.67
2019-01-25T03:30:17.999Z,44.27
2019-01-25T03:32:51.741Z,45.07
2019-01-25T03:35:26.306Z,45.87
2019-01-25T03:38:03.183Z,50.57
2019-01-25T03:40:36.883Z,43.63
2019-01-25T03:43:22.659Z,35.90
2019-01-25T03:45:56.670Z,49.10
2019-01-25T03:48:30.383Z,43.40
2019-01-25T03:51:07.185Z,45.60
2019-01-25T03:53:40.954Z,46.20
2019-01-25T03:56:14.734Z,47.20
2019-01-25T03:59:03.548Z,47.63
2019-01-25T04:01:37.240Z,46.23
2019-01-25T04:04:14.465Z,46.43
2019-01-25T04:06:48.150Z,47.77
2019-01-25T04:09:21.826Z,51.30
2019-01-25T04:11:58.617Z,47.43
2019-01-25T04:14:32.347Z,50.43
2019-01-25T04:17:06.117Z,49.33
2019-01-25T04:19:51.714Z,48.63
2019-01-25T04:22:25.375Z,47.67
2019-01-25T04:24:59.046Z,47.00
2019-01-25T04:27:32.748Z,44.53
2019-01-25T04:30:09.459Z,49.20
2019-01-25T04:32:43.222Z,45.97
2019-01-25T04:35:17.209Z,55.33
2019-01-25T04:37:51.276Z,44.27
2019-01-25T04:40:25.052Z,48.30
2019-01-25T04:42:58.834Z,45.07
2019-01-25T04:45:32.494Z,45.37
2019-01-25T04:48:09.375Z,47.47
2019-01-25T04:50:42.992Z,46.87
2019-01-25T04:53:16.659Z,47.73
2019-01-25T04:55:50.358Z,42.03
2019-01-25T04:58:23.973Z,50.27
2019-01-25T05:01:02.541Z,49.23
2019-01-25T05:03:53.099Z,45.87
2019-01-25T05:06:26.793Z,49.97
2019-01-25T05:09:01.019Z,45.13
2019-01-25T05:11:40.439Z,43.73
2019-01-25T05:14:14.095Z,47.93
2019-01-25T05:16:49.805Z,46.03
2019-01-25T05:19:39.379Z,49.10
2019-01-25T05:22:13.147Z,50.43
2019-01-25T05:24:46.747Z,51.87
2019-01-25T05:27:20.375Z,59.43
2019-01-25T05:29:54.714Z,47.50
2019-01-25T05:32:28.759Z,53.40
2019-01-25T05:35:04.986Z,49.00
2019-01-25T05:37:41.923Z,48.90
2019-01-25T05:40:27.985Z,47.57
2019-01-25T05:43:06.150Z,52.57
2019-01-25T05:45:45.184Z,47.20
2019-01-25T05:48:18.880Z,50.50
2019-01-25T05:50:55.871Z,52.43
2019-01-25T05:53:29.578Z,53.20
2019-01-25T05:56:03.279Z,53.27
2019-01-25T05:58:40.801Z,49.03
2019-01-25T06:01:14.493Z,47.63
2019-01-25T06:03:48.219Z,52.43
2019-01-25T06:06:22.816Z,46.60
2019-01-25T06:08:56.414Z,53.70
2019-01-25T06:11:35.388Z,48.93
2019-01-25T06:14:05.460Z,52.80
2019-01-25T06:16:41.027Z,51.17
2019-01-25T06:19:26.855Z,48.07
2019-01-25T06:22:00.520Z,51.33
2019-01-25T06:24:46.752Z,47.87
2019-01-25T06:27:20.577Z,46.23
2019-01-25T06:29:54.206Z,50.20
2019-01-25T06:32:32.515Z,55.63
2019-01-25T06:35:08.473Z,49.53
2019-01-25T06:37:45.985Z,50.97
2019-01-25T06:40:19.652Z,48.03
2019-01-25T06:42:56.466Z,48.67
2019-01-25T06:45:30.064Z,50.70
2019-01-25T06:48:05.908Z,49.37
2019-01-25T06:50:39.585Z,51.70
2019-01-25T06:53:21.646Z,53.47
2019-01-25T06:55:55.378Z,50.60
2019-01-25T06:58:33.725Z,50.87
2019-01-25T07:01:09.086Z,45.87
2019-01-25T07:03:42.858Z,50.67
2019-01-25T07:06:17.448Z,48.93
2019-01-25T07:08:51.087Z,49.87
2019-01-25T07:11:25.735Z,50.80
2019-01-25T07:13:59.470Z,51.03
2019-01-25T07:16:33.147Z,49.60
2019-01-25T07:19:06.902Z,51.73
2019-01-25T07:21:40.646Z,49.47
2019-01-25T07:24:17.522Z,58.10
2019-01-25T07:26:51.117Z,60.10
2019-01-25T07:29:29.473Z,49.73
2019-01-25T07:32:03.205Z,62.83
2019-01-25T07:34:46.032Z,56.83
2019-01-25T07:37:19.655Z,62.43
2019-01-25T07:39:53.420Z,56.00
2019-01-25T07:42:27.030Z,52.73
2019-01-25T07:45:00.836Z,57.20
2019-01-25T07:47:34.505Z,52.13
2019-01-25T07:50:12.501Z,53.13
2019-01-25T07:52:53.157Z,51.17
2019-01-25T07:55:26.814Z,54.07
2019-01-25T07:58:00.565Z,53.63
2019-01-25T08:00:34.298Z,51.27
2019-01-25T08:03:07.898Z,55.83
2019-01-25T08:06:05.808Z,53.67
2019-01-25T08:08:39.425Z,49.83
2019-01-25T08:11:16.143Z,55.20
2019-01-25T08:13:49.889Z,58.90
2019-01-25T08:16:23.578Z,47.33
2019-01-25T08:18:57.180Z,48.37
2019-01-25T08:21:30.918Z,49.57
2019-01-25T08:24:22.671Z,48.27
2019-01-25T08:26:56.365Z,54.93
2019-01-25T08:29:30.437Z,43.77
2019-01-25T08:32:04.661Z,50.20
2019-01-25T08:34:38.332Z,41.30
2019-01-25T08:37:12.091Z,56.77
2019-01-25T08:39:45.820Z,53.00
2019-01-25T08:42:19.519Z,47.80
2019-01-25T08:44:53.463Z,52.73
2019-01-25T08:47:45.369Z,53.37
2019-01-25T08:50:21.969Z,49.40
2019-01-25T08:52:58.855Z,66.43
2019-01-25T08:55:32.893Z,77.37
2019-01-25T08:58:12.716Z,51.80
2019-01-25T09:00:46.489Z,56.10
2019-01-25T09:03:20.172Z,53.57
2019-01-25T09:05:53.880Z,60.43
2019-01-25T09:08:27.506Z,54.33
2019-01-25T09:11:01.247Z,52.37
2019-01-25T09:13:35.018Z,54.53
2019-01-25T09:16:08.742Z,55.40
2019-01-25T09:18:42.518Z,57.43
2019-01-25T09:21:16.110Z,48.27
2019-01-25T09:23:49.739Z,51.70
2019-01-25T09:26:23.330Z,50.10
2019-01-25T09:28:57.350Z,52.17
2019-01-25T09:31:32.685Z,52.60
2019-01-25T09:34:06.404Z,53.03
2019-01-25T09:36:40.069Z,54.13
2019-01-25T09:39:13.833Z,47.73
2019-01-25T09:41:47.433Z,51.57
2019-01-25T09:44:21.187Z,50.73
2019-01-25T09:46:54.774Z,52.77
2019-01-25T09:49:28.423Z,53.20
2019-01-25T09:52:02.077Z,48.20
2019-01-25T09:54:35.770Z,53.10
2019-01-25T09:57:09.487Z,56.77
2019-01-25T09:59:43.112Z,50.87
2019-01-25T10:02:31.869Z,46.10
2019-01-25T10:05:06.530Z,50.87
2019-01-25T10:07:40.125Z,47.97
2019-01-25T10:10:17.029Z,49.87
2019-01-25T10:12:50.695Z,48.33
2019-01-25T10:15:31.270Z,50.53
2019-01-25T10:18:05.302Z,53.37
2019-01-25T10:20:39.062Z,48.27
2019-01-25T10:23:12.665Z,45.63
2019-01-25T10:25:46.428Z,47.57
2019-01-25T10:28:20.179Z,46.00
2019-01-25T10:31:07.166Z,48.17
2019-01-25T10:33:40.856Z,45.07
2019-01-25T10:36:14.517Z,43.70
2019-01-25T10:38:54.362Z,41.40
2019-01-25T10:41:27.966Z,43.43
2019-01-25T10:44:01.673Z,46.20
2019-01-25T10:46:36.396Z,45.80
2019-01-25T10:49:10.406Z,45.00
2019-01-25T10:51:44.442Z,40.77
2019-01-25T10:54:42.211Z,41.80
2019-01-25T10:57:15.904Z,39.40
2019-01-25T10:59:53.510Z,41.13
2019-01-25T11:02:27.143Z,43.67
2019-01-25T11:05:00.872Z,46.57
2019-01-25T11:07:34.557Z,44.60
2019-01-25T11:10:22.420Z,40.87
2019-01-25T11:13:00.851Z,44.20
2019-01-25T11:15:31.381Z,47.23
2019-01-25T11:18:08.343Z,47.30
2019-01-25T11:20:42.066Z,48.83
2019-01-25T11:23:22.096Z,44.13
2019-01-25T11:25:55.863Z,50.13
2019-01-25T11:28:29.479Z,49.27
2019-01-25T11:31:03.256Z,47.40
2019-01-25T11:33:37.033Z,45.43
2019-01-25T11:36:10.787Z,50.27
2019-01-25T11:38:44.458Z,45.50
2019-01-25T11:41:21.232Z,45.03
2019-01-25T11:43:54.942Z,49.67
2019-01-25T11:46:40.555Z,49.57
2019-01-25T11:49:14.162Z,50.57
2019-01-25T11:51:47.855Z,43.83
2019-01-25T11:54:21.592Z,45.53
2019-01-25T11:56:55.301Z,52.20
2019-01-25T11:59:33.922Z,39.90
2019-01-25T12:02:07.696Z,42.93
2019-01-25T12:04:41.360Z,43.30
2019-01-25T12:07:27.313Z,46.97
2019-01-25T12:10:00.971Z,42.97
2019-01-25T12:12:37.579Z,41.60
2019-01-25T12:15:14.115Z,38.33
2019-01-25T12:17:47.886Z,42.50
2019-01-25T12:20:33.980Z,43.90
2019-01-25T12:23:07.970Z,42.53
2019-01-25T12:25:43.648Z,42.27
2019-01-25T12:28:17.320Z,43.57
2019-01-25T12:31:06.127Z,37.37
2019-01-25T12:33:39.711Z,35.70
2019-01-25T12:36:14.391Z,42.47
2019-01-25T12:38:48.132Z,37.97
2019-01-25T12:41:25.426Z,40.33
2019-01-25T12:43:59.016Z,39.73
2019-01-25T12:46:37.341Z,34.57
2019-01-25T12:49:10.934Z,34.57
2019-01-25T12:51:56.698Z,37.10
2019-01-25T12:54:30.296Z,43.40
2019-01-25T12:57:15.850Z,56.17
2019-01-25T12:59:49.507Z,40.37
2019-01-25T13:02:24.139Z,30.47
2019-01-25T13:04:57.733Z,30.03
2019-01-25T13:07:31.366Z,32.20
2019-01-25T13:10:08.048Z,32.30
2019-01-25T13:12:41.738Z,29.87
2019-01-25T13:15:15.512Z,28.87
2019-01-25T13:17:49.240Z,31.27
2019-01-25T13:20:32.041Z,32.00
2019-01-25T13:23:05.871Z,32.47
2019-01-25T13:25:39.571Z,34.50
2019-01-25T13:28:13.237Z,31.13
2019-01-25T13:30:46.865Z,30.03
2019-01-25T13:33:20.657Z,34.03
2019-01-25T13:35:54.356Z,32.20
2019-01-25T13:38:28.028Z,29.83
2019-01-25T13:41:08.119Z,29.33
2019-01-25T13:43:41.788Z,30.93
2019-01-25T13:46:27.856Z,25.80
2019-01-25T13:49:01.523Z,31.50
2019-01-25T13:51:42.442Z,25.17
2019-01-25T13:54:16.169Z,27.90
2019-01-25T13:56:49.749Z,30.30
2019-01-25T13:59:23.430Z,29.73
2019-01-25T14:01:57.315Z,28.77
2019-01-25T14:04:37.074Z,36.87
2019-01-25T14:07:10.847Z,32.07
2019-01-25T14:09:49.362Z,27.27
2019-01-25T14:12:23.000Z,33.23
2019-01-25T14:14:56.628Z,33.67
2019-01-25T14:17:45.421Z,33.37
2019-01-25T14:20:23.322Z,33.57
2019-01-25T14:22:57.205Z,30.30
2019-01-25T14:25:40.044Z,33.70
2019-01-25T14:28:13.744Z,30.37
2019-01-25T14:30:47.403Z,32.57
2019-01-25T14:33:48.400Z,36.33
2019-01-25T14:36:22.111Z,29.77
2019-01-25T14:38:55.736Z,29.87
2019-01-25T14:41:29.412Z,31.73
2019-01-25T14:44:03.181Z,30.60
2019-01-25T14:46:39.798Z,29.33
2019-01-25T14:49:13.430Z,29.77
2019-01-25T14:51:47.161Z,30.13
2019-01-25T14:54:20.814Z,30.40
2019-01-25T14:56:54.456Z,28.73
2019-01-25T14:59:32.716Z,31.37
2019-01-25T15:02:06.684Z,41.03
2019-01-25T15:04:46.709Z,39.53
2019-01-25T15:07:20.371Z,29.13
2019-01-25T15:10:08.963Z,38.80
2019-01-25T15:12:43.025Z,34.30
2019-01-25T15:15:16.856Z,29.20
2019-01-25T15:17:50.604Z,29.23
2019-01-25T15:20:26.584Z,29.10
2019-01-25T15:23:19.648Z,28.90
2019-01-25T15:25:53.456Z,27.27
2019-01-25T15:28:31.777Z,27.97
2019-01-25T15:31:05.539Z,32.10
2019-01-25T15:33:39.230Z,26.30
2019-01-25T15:36:12.925Z,26.13
2019-01-25T15:38:46.529Z,31.27
2019-01-25T15:41:20.249Z,32.83
2019-01-25T15:43:53.833Z,33.67
2019-01-25T15:46:27.464Z,30.40
2019-01-25T15:49:01.133Z,35.00
2019-01-25T15:51:34.910Z,38.77
2019-01-25T15:54:08.533Z,37.20
2019-01-25T15:56:42.335Z,40.13
2019-01-25T15:59:15.948Z,36.07
2019-01-25T16:01:49.645Z,39.10
2019-01-25T16:04:23.347Z,35.87
2019-01-25T16:06:57.044Z,38.10
2019-01-25T16:09:30.743Z,38.23
2019-01-25T16:12:04.522Z,35.37
2019-01-25T16:14:38.139Z,33.80
2019-01-25T16:17:11.903Z,33.17
2019-01-25T16:19:45.516Z,31.67
2019-01-25T16:22:19.214Z,38.00
2019-01-25T16:24:57.467Z,33.97
2019-01-25T16:27:31.145Z,35.10
2019-01-25T16:30:28.203Z,34.47
2019-01-25T16:33:01.978Z,35.50
2019-01-25T16:35:56.715Z,35.47
2019-01-25T16:38:30.487Z,30.63
2019-01-25T16:43:59.822Z,33.17
2019-01-25T16:46:33.497Z,30.50
2019-01-25T16:49:09.194Z,33.80
2019-01-25T16:51:43.248Z,37.80
2019-01-25T16:54:16.887Z,34.77
2019-01-25T16:56:50.489Z,36.33
2019-01-25T16:59:24.106Z,35.37
2019-01-25T17:01:57.838Z,34.93
2019-01-25T17:04:31.493Z,34.87
2019-01-25T17:07:05.251Z,32.23
2019-01-25T17:09:38.990Z,32.37
2019-01-25T17:12:13.068Z,38.37
2019-01-25T17:14:46.727Z,36.67
2019-01-25T17:17:20.415Z,29.83
2019-01-25T17:19:54.121Z,32.97
2019-01-25T17:22:33.927Z,31.27
2019-01-25T17:25:10.502Z,34.87
2019-01-25T17:27:44.443Z,36.17
2019-01-25T17:30:37.668Z,35.30
2019-01-25T17:33:11.301Z,39.80
2019-01-25T17:35:45.318Z,37.33
2019-01-25T17:38:31.920Z,39.50
2019-01-25T17:41:05.758Z,33.90
2019-01-25T17:43:40.895Z,37.50
2019-01-25T17:46:17.794Z,39.80
2019-01-25T17:48:55.235Z,37.93
2019-01-25T17:51:28.827Z,42.53
2019-01-25T17:54:05.767Z,43.03
2019-01-25T17:56:39.433Z,39.87
2019-01-25T17:59:13.079Z,38.43
2019-01-25T18:01:46.769Z,37.00
2019-01-25T18:04:20.394Z,47.20
2019-01-25T18:06:53.994Z,40.50
2019-01-25T18:09:27.609Z,42.77
2019-01-25T18:12:04.365Z,41.30
2019-01-25T18:14:37.998Z,46.27
2019-01-25T18:17:11.589Z,40.80
2019-01-25T18:19:47.283Z,46.23
2019-01-25T18:22:21.037Z,44.33
2019-01-25T18:25:10.003Z,48.40
2019-01-25T18:27:47.014Z,47.63
2019-01-25T18:30:24.509Z,44.60
2019-01-25T18:33:09.343Z,47.47
2019-01-25T18:35:43.061Z,44.93
2019-01-25T18:38:19.034Z,55.87
2019-01-25T18:40:52.744Z,47.20
2019-01-25T18:43:29.637Z,53.73
2019-01-25T18:46:03.330Z,45.40
2019-01-25T18:49:03.069Z,44.70
2019-01-25T18:51:36.780Z,47.00
2019-01-25T18:54:13.946Z,44.87
2019-01-25T18:56:47.564Z,47.50
2019-01-25T18:59:21.240Z,48.90
2019-01-25T19:02:02.295Z,50.00
2019-01-25T19:04:35.892Z,56.20
2019-01-25T19:07:09.665Z,49.03
2019-01-25T19:09:43.306Z,51.27
2019-01-25T19:12:27.351Z,47.00
2019-01-25T19:15:04.573Z,50.83
2019-01-25T19:17:40.552Z,49.07
2019-01-25T19:20:16.504Z,55.07
2019-01-25T19:22:50.272Z,58.07
2019-01-25T19:25:27.309Z,53.13
2019-01-25T19:28:01.000Z,53.00
2019-01-25T19:30:40.691Z,58.43
2019-01-25T19:33:14.518Z,48.13
2019-01-25T19:35:48.260Z,57.60
2019-01-25T19:38:22.027Z,57.13
2019-01-25T19:40:58.223Z,56.27
2019-01-25T19:43:41.555Z,47.90
2019-01-25T19:46:15.301Z,60.90
2019-01-25T19:48:52.529Z,54.60
2019-01-25T19:51:28.480Z,49.37
2019-01-25T19:54:02.284Z,50.47
2019-01-25T19:56:40.441Z,61.00
2019-01-25T19:59:14.195Z,60.50
2019-01-25T20:01:54.158Z,57.17
2019-01-25T20:04:27.802Z,55.63
2019-01-25T20:07:01.470Z,53.80
2019-01-25T20:09:40.644Z,57.67
2019-01-25T20:12:15.621Z,58.67
2019-01-25T20:14:53.981Z,62.90
2019-01-25T20:17:27.650Z,61.27
2019-01-25T20:20:10.918Z,55.33
2019-01-25T20:23:12.415Z,67.30
2019-01-25T20:25:52.631Z,67.53
2019-01-25T20:28:27.782Z,69.70
2019-01-25T20:31:01.613Z,66.27
2019-01-25T20:33:35.380Z,72.67
2019-01-25T20:36:09.429Z,74.10
2019-01-25T20:38:44.464Z,65.47
2019-01-25T20:41:39.762Z,78.83
2019-01-25T20:44:15.106Z,72.97
2019-01-25T20:47:00.985Z,56.20
2019-01-25T20:49:34.680Z,69.80
2019-01-25T20:52:08.412Z,50.23
2019-01-25T20:54:42.110Z,70.17
2019-01-25T20:57:40.367Z,71.13
2019-01-25T21:02:59.469Z,83.03
2019-01-25T21:05:33.256Z,71.00
2019-01-25T21:08:07.020Z,73.73
2019-01-25T21:10:46.130Z,70.53
2019-01-25T21:13:20.154Z,66.20
2019-01-25T21:16:03.517Z,76.13
2019-01-25T21:18:44.990Z,76.40
2019-01-25T21:21:18.711Z,66.93
2019-01-25T21:23:58.834Z,65.40
2019-01-25T21:26:32.494Z,63.83
2019-01-25T21:29:06.267Z,82.87
2019-01-25T21:31:39.940Z,77.27
2019-01-25T21:34:13.681Z,75.50
2019-01-25T21:36:47.450Z,66.63
2019-01-25T21:39:21.036Z,71.40
2019-01-25T21:41:54.734Z,53.67
2019-01-25T21:44:43.563Z,60.67
2019-01-25T21:47:37.590Z,54.73
2019-01-25T21:50:14.400Z,66.37
2019-01-25T21:52:48.268Z,64.50
2019-01-25T21:55:43.495Z,65.37
2019-01-25T21:58:17.163Z,68.40
2019-01-25T22:01:15.184Z,66.33
2019-01-25T22:03:48.919Z,64.90
2019-01-25T22:06:22.866Z,58.40
2019-01-25T22:08:57.172Z,65.43
2019-01-25T22:11:44.749Z,64.20
2019-01-25T22:14:18.508Z,62.73
2019-01-25T22:16:55.349Z,69.07
2019-01-25T22:19:29.030Z,47.47
2019-01-25T22:22:02.712Z,63.60
2019-01-25T22:24:36.729Z,57.13
2019-01-25T22:27:10.418Z,68.37
2019-01-25T22:29:46.978Z,63.03
2019-01-25T22:32:20.751Z,61.67
2019-01-25T22:34:54.367Z,59.03
2019-01-25T22:37:47.543Z,65.37
2019-01-25T22:40:24.437Z,61.60
2019-01-25T22:42:58.319Z,69.07
2019-01-25T22:45:32.060Z,70.53
2019-01-25T22:48:05.815Z,68.27
2019-01-25T22:50:48.760Z,51.77
2019-01-25T22:53:22.386Z,51.23
2019-01-25T22:55:56.147Z,69.07
2019-01-25T22:58:45.367Z,53.83
2019-01-25T23:01:22.276Z,48.03
2019-01-25T23:04:01.869Z,51.87
2019-01-25T23:06:41.057Z,34.03
2019-01-25T23:09:18.781Z,37.23
2019-01-25T23:11:52.482Z,50.50
2019-01-25T23:14:26.214Z,39.27
2019-01-25T23:16:59.985Z,60.00
2019-01-25T23:19:33.711Z,58.47
2019-01-25T23:22:13.545Z,41.13
2019-01-25T23:24:47.618Z,49.97
2019-01-25T23:27:21.242Z,57.33
2019-01-25T23:29:58.678Z,53.57
2019-01-25T23:32:32.387Z,46.97
2019-01-25T23:35:06.443Z,45.77
2019-01-25T23:37:40.103Z,64.33
2019-01-25T23:40:23.117Z,60.00
2019-01-25T23:42:56.786Z,50.37
2019-01-25T23:45:38.612Z,52.23
2019-01-25T23:48:16.330Z,52.90
2019-01-25T23:50:50.011Z,53.27
2019-01-25T23:53:23.674Z,54.90
2019-01-25T23:55:57.413Z,54.90
2019-01-25T23:58:39.140Z,46.47
